Time;durP1;ratioP1;P1;durP2;ratioP2;P2;SDS_P1;SDS_P2;PMS_P1;PMS_P2;Temp;Humidity;BMP_temperature;BMP_pressure;BME280_temperature;BME280_humidity;BME280_pressure;Samples;Min_cycle;Max_cycle;Signal;HPM_P1;HPM_P2
2023/07/05 00:01:22;;;;;;;;;;;20.70;57.80;;;;;;5052479;28;19921;-58
2023/07/05 00:03:49;;;;;;;;;;;20.70;57.90;;;;;;5085805;28;19921;-58
2023/07/05 00:06:14;;;;;;;;;;;20.70;57.90;;;;;;5052367;28;19943;-58
2023/07/05 00:08:40;;;;;;;;;;;20.70;58.00;;;;;;5053247;28;19925;-58
2023/07/05 00:11:07;;;;;;;;;;;20.60;57.90;;;;;;5085801;28;19921;-58
2023/07/05 00:13:33;;;;;;;;;;;20.60;58.00;;;;;;5085665;28;20014;-58
2023/07/05 00:15:59;;;;;;;;;;;20.60;58.10;;;;;;5085255;28;20380;-58
2023/07/05 00:18:25;;;;;;;;;;;20.70;58.10;;;;;;5052991;28;19920;-58
2023/07/05 00:20:50;;;;;;;;;;;20.70;58.10;;;;;;5052028;28;20394;-57
2023/07/05 00:23:16;;;;;;;;;;;20.70;58.20;;;;;;5051995;28;19927;-57
2023/07/05 00:25:41;;;;;;;;;;;20.70;58.20;;;;;;5051968;28;19983;-58
2023/07/05 00:28:07;;;;;;;;;;;20.60;58.20;;;;;;5052863;28;19976;-57
2023/07/05 00:30:32;;;;;;;;;;;20.60;58.20;;;;;;5085457;28;19921;-57
2023/07/05 00:32:58;;;;;;;;;;;20.60;58.30;;;;;;5052723;28;19920;-58
2023/07/05 00:35:23;;;;;;;;;;;20.60;58.30;;;;;;5051492;28;19925;-58
2023/07/05 00:37:49;;;;;;;;;;;20.60;58.30;;;;;;5051777;28;19946;-58
2023/07/05 00:40:14;;;;;;;;;;;20.60;58.40;;;;;;5051726;28;20020;-57
2023/07/05 00:42:40;;;;;;;;;;;20.60;58.50;;;;;;5052802;28;20372;-57
2023/07/05 00:47:53;;;;;;;;;;;20.60;58.50;;;;;;5089835;28;19919;-58
2023/07/05 00:50:21;;;;;;;;;;;20.50;58.50;;;;;;5089859;28;20282;-58
2023/07/05 00:52:47;;;;;;;;;;;20.60;58.60;;;;;;5089920;28;19927;-58
2023/07/05 00:55:13;;;;;;;;;;;20.50;58.60;;;;;;5088783;28;20375;-58
2023/07/05 00:57:39;;;;;;;;;;;20.50;58.60;;;;;;5088793;28;20320;-58
2023/07/05 01:00:07;;;;;;;;;;;20.60;58.70;;;;;;5088626;28;19939;-58
2023/07/05 01:02:38;;;;;;;;;;;20.60;58.70;;;;;;5088399;28;19920;-58
2023/07/05 01:05:05;;;;;;;;;;;20.50;58.60;;;;;;5088591;28;19927;-58
2023/07/05 01:07:31;;;;;;;;;;;20.50;58.70;;;;;;5088286;28;19924;-58
2023/07/05 01:09:56;;;;;;;;;;;20.50;58.70;;;;;;5088458;28;20261;-58
2023/07/05 01:15:09;;;;;;;;;;;20.50;58.70;;;;;;5110136;27;20282;-58
2023/07/05 01:17:45;;;;;;;;;;;20.50;58.70;;;;;;5109263;28;19920;-58
2023/07/05 01:20:31;;;;;;;;;;;20.50;58.80;;;;;;5108887;28;19929;-58
2023/07/05 01:23:04;;;;;;;;;;;20.50;58.80;;;;;;5108724;28;19931;-58
2023/07/05 01:25:49;;;;;;;;;;;20.50;58.90;;;;;;5109090;28;20382;-58
2023/07/05 01:28:36;;;;;;;;;;;20.50;58.90;;;;;;5109917;28;19979;-58
2023/07/05 01:33:50;;;;;;;;;;;20.50;58.90;;;;;;5110268;27;19912;-58
2023/07/05 01:36:17;;;;;;;;;;;20.50;59.00;;;;;;5108819;28;20006;-58
2023/07/05 01:38:42;;;;;;;;;;;20.50;59.10;;;;;;5108955;28;19973;-57
2023/07/05 01:41:08;;;;;;;;;;;20.40;59.10;;;;;;5109125;28;19919;-57
2023/07/05 01:43:36;;;;;;;;;;;20.40;59.20;;;;;;5108889;28;20006;-58
2023/07/05 01:46:21;;;;;;;;;;;20.40;59.30;;;;;;5108720;28;20382;-57
2023/07/05 01:54:25;;;;;;;;;;;20.40;59.40;;;;;;5089924;28;20283;-58
2023/07/05 01:56:54;;;;;;;;;;;20.40;60.10;;;;;;5088547;28;19920;-58
2023/07/05 01:59:22;;;;;;;;;;;20.40;59.50;;;;;;5088808;28;19920;-58
2023/07/05 02:01:49;;;;;;;;;;;20.40;59.50;;;;;;5088535;28;20591;-58
2023/07/05 02:04:14;;;;;;;;;;;20.40;59.50;;;;;;5089021;28;19925;-58
2023/07/05 02:06:42;;;;;;;;;;;20.30;59.50;;;;;;5089659;28;19943;-57
2023/07/05 02:09:07;;;;;;;;;;;20.30;59.60;;;;;;5088652;28;20345;-57
2023/07/05 02:11:33;;;;;;;;;;;20.30;59.60;;;;;;5088299;28;19996;-57
2023/07/05 02:13:58;;;;;;;;;;;20.30;59.70;;;;;;5089478;28;19925;-57
2023/07/05 02:16:24;;;;;;;;;;;20.30;59.80;;;;;;5088129;28;19928;-57
2023/07/05 02:18:49;;;;;;;;;;;20.30;59.80;;;;;;5088476;28;20320;-58
2023/07/05 02:21:15;;;;;;;;;;;20.30;59.80;;;;;;5088463;28;20383;-58
2023/07/05 02:23:40;;;;;;;;;;;20.30;59.90;;;;;;5088027;28;19921;-58
2023/07/05 02:26:07;;;;;;;;;;;20.30;59.90;;;;;;5089442;28;19927;-58
2023/07/05 02:28:33;;;;;;;;;;;20.30;60.00;;;;;;5088589;28;19920;-57
2023/07/05 02:31:03;;;;;;;;;;;20.30;60.00;;;;;;5088219;28;20398;-58
2023/07/05 02:33:29;;;;;;;;;;;20.20;60.00;;;;;;5089033;28;19930;-58
2023/07/05 02:35:54;;;;;;;;;;;20.30;60.10;;;;;;5088177;28;19924;-58
2023/07/05 02:38:20;;;;;;;;;;;20.20;60.00;;;;;;5089057;28;19920;-57
2023/07/05 02:40:47;;;;;;;;;;;20.20;60.10;;;;;;5087858;28;19920;-58
2023/07/05 02:43:13;;;;;;;;;;;20.20;60.10;;;;;;5089003;28;20287;-58
2023/07/05 02:45:38;;;;;;;;;;;20.20;60.20;;;;;;5088878;28;19921;-57
2023/07/05 02:48:04;;;;;;;;;;;20.20;60.20;;;;;;5087857;28;19947;-57
2023/07/05 02:50:29;;;;;;;;;;;20.20;60.20;;;;;;5089126;28;20050;-58
2023/07/05 02:52:54;;;;;;;;;;;20.20;60.30;;;;;;5087116;28;19928;-58
2023/07/05 02:55:20;;;;;;;;;;;20.20;60.40;;;;;;5088777;28;19924;-57
2023/07/05 02:57:45;;;;;;;;;;;20.20;60.40;;;;;;5088696;28;19924;-58
2023/07/05 03:00:11;;;;;;;;;;;20.20;60.40;;;;;;5087338;28;19920;-58
2023/07/05 03:02:37;;;;;;;;;;;20.10;60.40;;;;;;5087702;28;19928;-57
2023/07/05 03:05:06;;;;;;;;;;;20.10;60.40;;;;;;5077313;28;19920;-58
2023/07/05 03:07:31;;;;;;;;;;;20.10;60.40;;;;;;5074128;28;19926;-58
2023/07/05 03:09:57;;;;;;;;;;;20.10;61.30;;;;;;5073668;28;20392;-58
2023/07/05 03:12:22;;;;;;;;;;;20.10;60.40;;;;;;5073887;28;19925;-58
2023/07/05 03:14:48;;;;;;;;;;;20.10;60.50;;;;;;5074918;28;19927;-58
2023/07/05 03:17:14;;;;;;;;;;;20.10;60.60;;;;;;5073953;28;20291;-58
2023/07/05 03:19:39;;;;;;;;;;;20.10;60.70;;;;;;5073591;28;19928;-58
2023/07/05 03:22:05;;;;;;;;;;;20.10;60.70;;;;;;5075030;28;20038;-58
2023/07/05 03:24:30;;;;;;;;;;;20.10;60.70;;;;;;5073427;28;19920;-58
2023/07/05 03:26:56;;;;;;;;;;;20.10;60.70;;;;;;5073769;28;19920;-58
2023/07/05 03:29:21;;;;;;;;;;;20.10;60.70;;;;;;5074712;28;19921;-58
2023/07/05 03:31:47;;;;;;;;;;;20.10;60.80;;;;;;5073333;28;20399;-57
2023/07/05 03:34:14;;;;;;;;;;;20.20;60.90;;;;;;5073195;28;20032;-58
2023/07/05 03:36:40;;;;;;;;;;;20.10;60.80;;;;;;5073615;28;19982;-58
2023/07/05 03:39:05;;;;;;;;;;;20.10;60.80;;;;;;5074575;28;20024;-58
2023/07/05 03:41:31;;;;;;;;;;;20.10;60.90;;;;;;5073575;28;20399;-58
2023/07/05 03:43:58;;;;;;;;;;;20.00;60.90;;;;;;5073088;28;19927;-58
2023/07/05 03:46:24;;;;;;;;;;;20.10;60.90;;;;;;5073217;28;19925;-58
2023/07/05 03:48:50;;;;;;;;;;;20.00;60.90;;;;;;5074351;28;20398;-57
2023/07/05 03:51:17;;;;;;;;;;;20.00;60.90;;;;;;5074308;28;19920;-58
2023/07/05 03:53:43;;;;;;;;;;;20.00;61.00;;;;;;5072810;28;19924;-58
2023/07/05 03:56:09;;;;;;;;;;;20.00;61.00;;;;;;5073377;28;19970;-58
2023/07/05 03:58:35;;;;;;;;;;;20.00;61.00;;;;;;5072858;28;20152;-58
2023/07/05 04:01:03;;;;;;;;;;;20.00;61.10;;;;;;5073049;28;19925;-58
2023/07/05 04:03:28;;;;;;;;;;;20.10;61.10;;;;;;5072769;28;20447;-58
2023/07/05 04:05:54;;;;;;;;;;;20.00;61.20;;;;;;5074073;28;20007;-58
2023/07/05 04:08:19;;;;;;;;;;;20.00;61.20;;;;;;5072693;28;19927;-58
2023/07/05 04:10:46;;;;;;;;;;;20.00;61.20;;;;;;5072456;28;19920;-58
2023/07/05 04:13:12;;;;;;;;;;;20.10;61.30;;;;;;5073888;28;19990;-58
2023/07/05 04:15:37;;;;;;;;;;;20.10;62.10;;;;;;5071665;28;19924;-58
2023/07/05 04:18:03;;;;;;;;;;;20.00;61.40;;;;;;5073496;28;19920;-58
2023/07/05 04:20:30;;;;;;;;;;;20.00;61.40;;;;;;5072361;28;19920;-58
2023/07/05 04:22:57;;;;;;;;;;;20.00;61.40;;;;;;5072611;28;20448;-58
2023/07/05 04:25:22;;;;;;;;;;;20.00;61.50;;;;;;5073802;28;20357;-59
2023/07/05 04:27:48;;;;;;;;;;;20.00;61.60;;;;;;5072156;28;20003;-58
2023/07/05 04:30:13;;;;;;;;;;;20.00;61.50;;;;;;5072221;28;19924;-58
2023/07/05 04:32:39;;;;;;;;;;;20.00;61.50;;;;;;5073228;28;19976;-58
2023/07/05 04:35:04;;;;;;;;;;;20.00;61.60;;;;;;5073290;28;19920;-58
2023/07/05 04:37:30;;;;;;;;;;;20.00;61.50;;;;;;5073284;28;20011;-58
2023/07/05 04:39:55;;;;;;;;;;;20.00;61.50;;;;;;5073695;28;19920;-58
2023/07/05 04:42:21;;;;;;;;;;;20.00;61.50;;;;;;5073210;28;20023;-58
2023/07/05 04:44:46;;;;;;;;;;;20.00;61.50;;;;;;5073201;28;19924;-58
2023/07/05 04:47:12;;;;;;;;;;;20.00;61.50;;;;;;5072079;28;20395;-58
2023/07/05 04:49:37;;;;;;;;;;;20.00;61.40;;;;;;5071834;28;19924;-58
2023/07/05 04:52:03;;;;;;;;;;;20.00;61.40;;;;;;5072863;28;20286;-58
2023/07/05 04:54:28;;;;;;;;;;;20.00;61.40;;;;;;5075513;28;20405;-58
2023/07/05 04:56:55;;;;;;;;;;;20.00;61.30;;;;;;5075204;28;20035;-59
2023/07/05 04:59:21;;;;;;;;;;;20.00;61.30;;;;;;5091865;28;19927;-58
2023/07/05 05:01:47;;;;;;;;;;;19.90;61.20;;;;;;5075271;28;19920;-58
2023/07/05 05:04:13;;;;;;;;;;;20.00;61.30;;;;;;5074792;28;19920;-58
2023/07/05 05:06:38;;;;;;;;;;;19.90;61.20;;;;;;5075189;28;19927;-58
2023/07/05 05:09:04;;;;;;;;;;;19.90;61.20;;;;;;5091646;28;19975;-58
2023/07/05 05:11:29;;;;;;;;;;;19.90;61.80;;;;;;5075118;28;19920;-58
2023/07/05 05:13:55;;;;;;;;;;;19.90;61.10;;;;;;5074647;28;20268;-58
2023/07/05 05:16:20;;;;;;;;;;;19.90;61.10;;;;;;5075034;28;20026;-57
2023/07/05 05:18:46;;;;;;;;;;;19.90;61.10;;;;;;5091478;28;19920;-58
2023/07/05 05:21:11;;;;;;;;;;;19.90;61.00;;;;;;5093081;28;19920;-58
2023/07/05 05:23:37;;;;;;;;;;;19.90;61.10;;;;;;5091735;28;19971;-58
2023/07/05 05:26:03;;;;;;;;;;;19.90;61.00;;;;;;5092815;28;19924;-58
2023/07/05 05:28:30;;;;;;;;;;;19.90;61.00;;;;;;5090575;28;19927;-58
2023/07/05 05:31:01;;;;;;;;;;;19.90;61.00;;;;;;5076352;28;19924;-58
2023/07/05 05:33:26;;;;;;;;;;;19.90;61.00;;;;;;5089422;28;19923;-58
2023/07/05 05:35:52;;;;;;;;;;;19.90;61.00;;;;;;5074292;28;19928;-58
2023/07/05 05:38:18;;;;;;;;;;;19.90;61.10;;;;;;5080192;28;19920;-58
2023/07/05 05:40:44;;;;;;;;;;;19.90;61.10;;;;;;5091553;28;20365;-58
2023/07/05 05:43:09;;;;;;;;;;;19.90;61.10;;;;;;5073888;28;19956;-59
2023/07/05 05:45:35;;;;;;;;;;;19.90;61.20;;;;;;5072535;28;19924;-59
2023/07/05 05:48:00;;;;;;;;;;;19.90;61.20;;;;;;5088455;28;19950;-58
2023/07/05 05:50:26;;;;;;;;;;;19.90;61.20;;;;;;5085811;28;19978;-58
2023/07/05 05:52:51;;;;;;;;;;;19.90;61.20;;;;;;5083863;28;19975;-58
2023/07/05 05:55:17;;;;;;;;;;;19.90;61.10;;;;;;5076946;28;19924;-58
2023/07/05 05:57:42;;;;;;;;;;;19.90;60.90;;;;;;5086664;28;19952;-58
2023/07/05 06:00:09;;;;;;;;;;;19.90;60.90;;;;;;5086373;28;19920;-58
2023/07/05 06:02:35;;;;;;;;;;;19.90;60.80;;;;;;5081692;28;20224;-58
2023/07/05 06:05:01;;;;;;;;;;;19.90;60.90;;;;;;5081793;28;20443;-58
2023/07/05 06:07:27;;;;;;;;;;;19.90;60.70;;;;;;5069816;28;19971;-58
2023/07/05 06:09:52;;;;;;;;;;;19.90;60.80;;;;;;5076336;28;20018;-58
2023/07/05 06:12:18;;;;;;;;;;;19.90;60.90;;;;;;5067386;28;20356;-58
2023/07/05 06:14:44;;;;;;;;;;;19.90;60.90;;;;;;5050723;28;19928;-59
2023/07/05 06:17:10;;;;;;;;;;;19.90;60.90;;;;;;5042992;28;20150;-59
2023/07/05 06:19:35;;;;;;;;;;;19.90;60.80;;;;;;5052266;28;19950;-59
2023/07/05 06:22:01;;;;;;;;;;;19.90;60.80;;;;;;5053760;28;19993;-59
2023/07/05 06:24:26;;;;;;;;;;;19.90;60.70;;;;;;5047899;28;20014;-59
2023/07/05 06:26:52;;;;;;;;;;;19.90;60.70;;;;;;5054660;28;20361;-59
2023/07/05 06:29:18;;;;;;;;;;;19.90;60.60;;;;;;5054429;28;19961;-59
2023/07/05 06:31:43;;;;;;;;;;;19.90;60.60;;;;;;5075195;28;20271;-58
2023/07/05 06:34:09;;;;;;;;;;;19.90;60.50;;;;;;5055712;28;19977;-58
2023/07/05 06:36:34;;;;;;;;;;;19.90;60.60;;;;;;5053254;28;20380;-57
2023/07/05 06:39:00;;;;;;;;;;;19.90;60.70;;;;;;5052299;28;20015;-58
2023/07/05 06:41:25;;;;;;;;;;;19.90;60.80;;;;;;5076637;28;20116;-58
2023/07/05 06:43:51;;;;;;;;;;;19.90;60.60;;;;;;5073790;28;19924;-58
2023/07/05 06:46:16;;;;;;;;;;;19.90;60.60;;;;;;5056820;28;19934;-58
2023/07/05 06:48:42;;;;;;;;;;;19.90;60.70;;;;;;5072690;28;20313;-58
2023/07/05 06:51:07;;;;;;;;;;;20.00;60.70;;;;;;5063697;28;19971;-58
2023/07/05 06:53:33;;;;;;;;;;;20.00;60.60;;;;;;5074617;28;19978;-57
2023/07/05 06:55:58;;;;;;;;;;;19.90;60.60;;;;;;5059693;28;19925;-57
2023/07/05 06:58:24;;;;;;;;;;;20.00;60.70;;;;;;5055648;28;19932;-57
2023/07/05 07:00:50;;;;;;;;;;;20.00;60.70;;;;;;5054551;28;20350;-57
2023/07/05 07:03:16;;;;;;;;;;;20.00;60.70;;;;;;5055553;28;19924;-57
2023/07/05 07:05:50;;;;;;;;;;;20.00;60.60;;;;;;5056130;28;20031;-57
2023/07/05 07:08:15;;;;;;;;;;;20.00;60.70;;;;;;5056782;28;20386;-57
2023/07/05 07:10:41;;;;;;;;;;;20.00;60.60;;;;;;5060479;28;20238;-57
2023/07/05 07:13:06;;;;;;;;;;;20.00;60.70;;;;;;5076997;28;20362;-57
2023/07/05 07:15:32;;;;;;;;;;;20.00;61.40;;;;;;5073536;28;19920;-57
2023/07/05 07:17:57;;;;;;;;;;;20.00;60.60;;;;;;5054138;28;19968;-58
2023/07/05 07:20:25;;;;;;;;;;;20.00;60.80;;;;;;5056579;28;21927;-58
2023/07/05 07:22:51;;;;;;;;;;;20.00;60.70;;;;;;5056863;28;19928;-58
2023/07/05 07:25:16;;;;;;;;;;;20.00;60.80;;;;;;5052158;28;19932;-59
2023/07/05 07:27:42;;;;;;;;;;;20.00;60.70;;;;;;5067967;28;20295;-58
2023/07/05 07:30:07;;;;;;;;;;;20.00;60.80;;;;;;5052762;28;19951;-59
2023/07/05 07:32:33;;;;;;;;;;;20.00;60.70;;;;;;5052397;28;19924;-58
2023/07/05 07:34:58;;;;;;;;;;;20.00;60.60;;;;;;5054439;28;19925;-58
2023/07/05 07:37:24;;;;;;;;;;;20.00;60.70;;;;;;5071461;28;19928;-57
2023/07/05 07:39:49;;;;;;;;;;;20.00;60.70;;;;;;5071099;28;19924;-58
2023/07/05 07:42:15;;;;;;;;;;;20.00;60.60;;;;;;5053864;28;19926;-58
2023/07/05 07:44:40;;;;;;;;;;;20.00;60.60;;;;;;5069795;28;20382;-57
2023/07/05 07:47:06;;;;;;;;;;;20.00;60.60;;;;;;5073068;28;19928;-58
2023/07/05 07:49:32;;;;;;;;;;;20.00;60.50;;;;;;5045936;28;20011;-58
2023/07/05 07:51:57;;;;;;;;;;;20.00;60.60;;;;;;5049139;28;20175;-58
2023/07/05 07:54:28;;;;;;;;;;;20.00;60.60;;;;;;5050955;28;20300;-57
2023/07/05 07:56:55;;;;;;;;;;;20.00;60.50;;;;;;5058529;28;20428;-58
2023/07/05 07:59:20;;;;;;;;;;;20.00;60.60;;;;;;5049684;28;20248;-58
2023/07/05 08:01:46;;;;;;;;;;;20.00;60.50;;;;;;5052898;28;19969;-57
2023/07/05 08:04:12;;;;;;;;;;;20.00;60.50;;;;;;5053458;28;20023;-57
2023/07/05 08:06:42;;;;;;;;;;;20.00;60.50;;;;;;5068842;28;19931;-59
2023/07/05 08:09:09;;;;;;;;;;;20.00;60.50;;;;;;5067109;28;20335;-58
2023/07/05 08:11:35;;;;;;;;;;;19.90;60.40;;;;;;5072065;28;20144;-57
2023/07/05 08:14:01;;;;;;;;;;;19.90;60.40;;;;;;5054666;28;20334;-57
2023/07/05 08:16:26;;;;;;;;;;;19.90;60.30;;;;;;5074563;28;19931;-56
2023/07/05 08:18:52;;;;;;;;;;;20.00;60.30;;;;;;5071160;28;20671;-58
2023/07/05 08:21:18;;;;;;;;;;;20.00;60.50;;;;;;5070092;28;20276;-59
2023/07/05 08:23:44;;;;;;;;;;;20.00;60.30;;;;;;5073617;28;20128;-58
2023/07/05 08:26:10;;;;;;;;;;;20.10;60.20;;;;;;5055273;28;20015;-58
2023/07/05 08:28:35;;;;;;;;;;;20.10;60.00;;;;;;5074155;28;20058;-58
2023/07/05 08:31:02;;;;;;;;;;;20.10;59.90;;;;;;5072275;28;20530;-58
2023/07/05 08:33:29;;;;;;;;;;;20.10;59.80;;;;;;5067905;28;19928;-58
2023/07/05 08:36:06;;;;;;;;;;;20.20;59.60;;;;;;5066211;28;20053;-58
2023/07/05 08:38:32;;;;;;;;;;;20.20;59.30;;;;;;5053490;28;19924;-58
2023/07/05 08:41:01;;;;;;;;;;;20.20;59.20;;;;;;5054703;28;19924;-59
2023/07/05 08:43:31;;;;;;;;;;;20.20;59.30;;;;;;5052645;28;19932;-57
2023/07/05 08:46:02;;;;;;;;;;;20.10;59.50;;;;;;5070901;28;19973;-56
2023/07/05 08:48:28;;;;;;;;;;;20.20;59.50;;;;;;5069820;28;19920;-56
2023/07/05 08:50:55;;;;;;;;;;;20.20;59.70;;;;;;5055568;28;20492;-57
2023/07/05 08:53:23;;;;;;;;;;;20.10;59.60;;;;;;5055647;28;19939;-56
2023/07/05 08:55:52;;;;;;;;;;;20.10;59.60;;;;;;5053787;28;19924;-58
2023/07/05 08:58:21;;;;;;;;;;;20.20;59.40;;;;;;5063302;28;20382;-57
2023/07/05 09:00:51;;;;;;;;;;;20.10;59.50;;;;;;5054045;28;19924;-58
2023/07/05 09:03:28;;;;;;;;;;;20.10;59.40;;;;;;5051448;28;19982;-59
2023/07/05 09:06:00;;;;;;;;;;;20.10;59.40;;;;;;5066604;28;19932;-57
2023/07/05 09:08:34;;;;;;;;;;;20.10;59.70;;;;;;5051552;28;19924;-58
2023/07/05 09:11:04;;;;;;;;;;;20.00;59.70;;;;;;5070875;28;19985;-58
2023/07/05 09:13:33;;;;;;;;;;;20.10;59.80;;;;;;5057744;28;20007;-58
2023/07/05 09:18:47;;;;;;;;;;;20.00;59.80;;;;;;5061573;28;19921;-56
2023/07/05 09:24:24;;;;;;;;;;;20.00;60.00;;;;;;5083923;27;20272;-57
2023/07/05 09:26:55;;;;;;;;;;;20.00;60.00;;;;;;5069494;28;20298;-58
2023/07/05 09:32:11;;;;;;;;;;;20.00;60.00;;;;;;5089256;27;19923;-57
2023/07/05 09:34:38;;;;;;;;;;;20.00;60.00;;;;;;5088222;28;20322;-58
2023/07/05 09:37:13;;;;;;;;;;;19.90;60.00;;;;;;5086971;28;20534;-57
2023/07/05 09:39:45;;;;;;;;;;;19.90;60.10;;;;;;5090329;28;20347;-58
2023/07/05 09:42:15;;;;;;;;;;;19.90;60.20;;;;;;5119967;27;19925;-57
2023/07/05 09:44:41;;;;;;;;;;;19.90;60.20;;;;;;5089493;28;20327;-57
2023/07/05 09:47:06;;;;;;;;;;;19.90;60.20;;;;;;5087094;28;20095;-57
2023/07/05 09:49:32;;;;;;;;;;;19.90;60.40;;;;;;5120428;27;19931;-57
2023/07/05 09:51:59;;;;;;;;;;;19.90;60.40;;;;;;5090795;28;19978;-57
2023/07/05 09:54:29;;;;;;;;;;;19.90;60.50;;;;;;5120945;27;19999;-57
2023/07/05 09:56:57;;;;;;;;;;;19.90;60.50;;;;;;5094501;28;19985;-58
2023/07/05 09:59:23;;;;;;;;;;;19.90;60.60;;;;;;5086242;28;20001;-58
2023/07/05 10:01:53;;;;;;;;;;;19.90;60.60;;;;;;5086986;28;19924;-58
2023/07/05 10:04:23;;;;;;;;;;;19.90;60.50;;;;;;5086227;28;19925;-58
2023/07/05 10:06:50;;;;;;;;;;;19.90;60.30;;;;;;5086797;28;19982;-58
2023/07/05 10:09:17;;;;;;;;;;;19.90;60.20;;;;;;5078072;28;20189;-58
2023/07/05 10:11:44;;;;;;;;;;;20.00;60.20;;;;;;5080880;28;19935;-58
2023/07/05 10:14:13;;;;;;;;;;;20.00;60.10;;;;;;5086931;28;20026;-56
2023/07/05 10:19:30;;;;;;;;;;;20.00;60.40;;;;;;5084911;27;19920;-58
2023/07/05 10:22:01;;;;;;;;;;;20.00;60.60;;;;;;5083930;28;19924;-58
2023/07/05 10:24:28;;;;;;;;;;;19.90;60.70;;;;;;5085705;28;20405;-58
2023/07/05 10:27:02;;;;;;;;;;;19.90;60.90;;;;;;5079637;28;19973;-58
2023/07/05 10:29:28;;;;;;;;;;;19.90;60.80;;;;;;5082737;28;19934;-57
2023/07/05 10:31:56;;;;;;;;;;;19.90;60.80;;;;;;5079965;28;20363;-58
2023/07/05 10:34:23;;;;;;;;;;;19.90;61.10;;;;;;5108364;27;19930;-58
2023/07/05 10:36:49;;;;;;;;;;;19.90;61.20;;;;;;5078329;28;20116;-58
2023/07/05 10:39:21;;;;;;;;;;;19.90;61.20;;;;;;5082196;28;19932;-58
2023/07/05 10:41:48;;;;;;;;;;;19.90;61.20;;;;;;5117727;27;19920;-58
2023/07/05 10:44:19;;;;;;;;;;;19.90;61.00;;;;;;5085250;28;19930;-57
2023/07/05 10:46:45;;;;;;;;;;;19.90;60.90;;;;;;5087344;28;19977;-58
2023/07/05 10:49:14;;;;;;;;;;;19.90;60.90;;;;;;5087603;28;20006;-58
2023/07/05 10:51:41;;;;;;;;;;;19.90;60.80;;;;;;5086325;28;19924;-59
2023/07/05 10:54:14;;;;;;;;;;;19.90;60.90;;;;;;5089413;28;20009;-59
2023/07/05 10:56:40;;;;;;;;;;;19.90;60.90;;;;;;5084588;28;20061;-59
2023/07/05 10:59:13;;;;;;;;;;;19.90;60.90;;;;;;5091751;28;20585;-59
2023/07/05 11:01:45;;;;;;;;;;;19.80;60.90;;;;;;5089081;28;19969;-58
2023/07/05 11:04:12;;;;;;;;;;;19.80;60.80;;;;;;5083542;28;19927;-59
2023/07/05 11:06:40;;;;;;;;;;;19.80;61.50;;;;;;5088417;28;19931;-59
2023/07/05 11:09:07;;;;;;;;;;;19.80;60.70;;;;;;5088048;28;19920;-59
2023/07/05 11:11:37;;;;;;;;;;;19.80;60.70;;;;;;5085107;28;19920;-59
2023/07/05 11:14:03;;;;;;;;;;;19.80;60.70;;;;;;5088429;28;20466;-59
2023/07/05 11:16:29;;;;;;;;;;;19.80;60.80;;;;;;5090181;28;20007;-59
2023/07/05 11:19:03;;;;;;;;;;;19.70;60.80;;;;;;5083933;28;19924;-58
2023/07/05 11:21:45;;;;;;;;;;;19.70;60.80;;;;;;5090215;28;20382;-59
2023/07/05 11:24:13;;;;;;;;;;;19.70;60.70;;;;;;5090012;28;19927;-58
2023/07/05 11:26:41;;;;;;;;;;;19.70;60.70;;;;;;5090776;28;19981;-58
2023/07/05 11:29:26;;;;;;;;;;;19.80;60.60;;;;;;5086716;28;19924;-58
2023/07/05 11:34:33;;;;;;;;;;;19.80;60.60;;;;;;5093337;27;19916;-57
2023/07/05 11:39:46;;;;;;;;;;;19.80;60.30;;;;;;5088046;27;19920;-57
2023/07/05 11:50:14;;;;;;;;;;;19.80;60.00;;;;;;5088881;27;19920;-57
2023/07/05 11:52:44;;;;;;;;;;;19.80;60.10;;;;;;5074642;28;19971;-57
2023/07/05 11:55:18;;;;;;;;;;;19.80;60.00;;;;;;5079417;28;19932;-57
2023/07/05 11:57:53;;;;;;;;;;;19.80;60.00;;;;;;5078333;28;20396;-57
2023/07/05 12:00:27;;;;;;;;;;;19.80;60.00;;;;;;5077107;28;20128;-57
2023/07/05 12:02:55;;;;;;;;;;;19.80;60.00;;;;;;5077592;28;19927;-57
2023/07/05 12:05:22;;;;;;;;;;;19.80;60.00;;;;;;5081604;28;19967;-57
2023/07/05 12:07:54;;;;;;;;;;;19.80;60.00;;;;;;5078221;28;20024;-57
2023/07/05 12:10:21;;;;;;;;;;;19.80;60.00;;;;;;5079069;28;19924;-57
2023/07/05 12:12:47;;;;;;;;;;;19.80;60.00;;;;;;5080166;28;19967;-57
2023/07/05 12:15:13;;;;;;;;;;;19.80;59.90;;;;;;5112633;28;19970;-61
2023/07/05 12:17:38;;;;;;;;;;;19.80;60.10;;;;;;5072807;28;19920;-59
2023/07/05 12:20:15;;;;;;;;;;;19.80;60.40;;;;;;5078718;28;20383;-59
2023/07/05 12:22:41;;;;;;;;;;;19.80;60.50;;;;;;5092682;28;19924;-60
2023/07/05 12:25:08;;;;;;;;;;;19.80;60.80;;;;;;5078779;28;20050;-59
2023/07/05 12:27:34;;;;;;;;;;;19.80;60.90;;;;;;5111640;28;19920;-59
2023/07/05 12:30:00;;;;;;;;;;;19.80;61.10;;;;;;5075714;28;19999;-59
2023/07/05 12:32:27;;;;;;;;;;;19.70;61.80;;;;;;5111031;28;20414;-59
2023/07/05 12:35:12;;;;;;;;;;;19.70;61.10;;;;;;5078996;28;20303;-60
2023/07/05 12:37:38;;;;;;;;;;;19.80;61.10;;;;;;5078104;28;19920;-60
2023/07/05 12:40:12;;;;;;;;;;;19.70;60.90;;;;;;5077586;28;20632;-59
2023/07/05 12:42:46;;;;;;;;;;;19.80;60.90;;;;;;5079724;28;19920;-60
2023/07/05 12:45:14;;;;;;;;;;;19.70;60.80;;;;;;5079507;28;19920;-59
2023/07/05 12:47:39;;;;;;;;;;;19.70;60.80;;;;;;5077713;28;19924;-60
2023/07/05 12:50:07;;;;;;;;;;;19.70;60.80;;;;;;5077249;28;19938;-62
2023/07/05 12:52:33;;;;;;;;;;;19.70;60.90;;;;;;5079494;28;19947;-62
2023/07/05 12:54:58;;;;;;;;;;;19.80;60.90;;;;;;5082528;28;20370;-59
2023/07/05 12:57:27;;;;;;;;;;;19.70;61.00;;;;;;5078173;28;19967;-60
2023/07/05 12:59:53;;;;;;;;;;;19.70;61.10;;;;;;5104724;28;19924;-60
2023/07/05 13:02:24;;;;;;;;;;;19.80;61.30;;;;;;5069900;28;19926;-59
2023/07/05 13:04:50;;;;;;;;;;;19.80;61.20;;;;;;5067198;28;19921;-60
2023/07/05 13:07:19;;;;;;;;;;;19.80;61.30;;;;;;5095158;28;20149;-61
2023/07/05 13:09:45;;;;;;;;;;;19.80;61.40;;;;;;5095914;28;19932;-61
2023/07/05 13:12:10;;;;;;;;;;;19.80;61.70;;;;;;5065490;28;20403;-61
2023/07/05 13:14:37;;;;;;;;;;;19.80;61.70;;;;;;5062422;28;19971;-61
2023/07/05 13:17:19;;;;;;;;;;;19.80;61.80;;;;;;5058100;28;19974;-62
2023/07/05 13:19:46;;;;;;;;;;;19.80;61.90;;;;;;5065240;28;19970;-61
2023/07/05 13:22:16;;;;;;;;;;;19.80;62.00;;;;;;5065821;28;19925;-61
2023/07/05 13:24:45;;;;;;;;;;;19.90;62.00;;;;;;5069592;28;19959;-61
2023/07/05 13:27:15;;;;;;;;;;;19.90;62.20;;;;;;5067030;28;19921;-61
2023/07/05 13:29:41;;;;;;;;;;;19.90;62.20;;;;;;5062778;28;20114;-59
2023/07/05 13:32:27;;;;;;;;;;;19.90;62.20;;;;;;5068650;28;20354;-59
2023/07/05 13:34:53;;;;;;;;;;;19.90;62.30;;;;;;5065315;28;19927;-58
2023/07/05 13:37:21;;;;;;;;;;;19.90;61.90;;;;;;5061532;28;20284;-58
2023/07/05 13:39:46;;;;;;;;;;;20.00;61.80;;;;;;5062322;28;19924;-58
2023/07/05 13:42:12;;;;;;;;;;;20.00;61.50;;;;;;5062165;28;19996;-58
2023/07/05 13:44:38;;;;;;;;;;;20.00;61.60;;;;;;5059595;28;20371;-57
2023/07/05 13:47:04;;;;;;;;;;;20.00;61.40;;;;;;5078154;28;19928;-58
2023/07/05 13:49:29;;;;;;;;;;;20.00;61.30;;;;;;5067110;28;19928;-57
2023/07/05 13:51:57;;;;;;;;;;;20.00;61.20;;;;;;5064939;28;19932;-58
2023/07/05 13:54:23;;;;;;;;;;;20.00;61.10;;;;;;5095185;28;19967;-58
2023/07/05 13:56:48;;;;;;;;;;;19.90;61.10;;;;;;5064033;28;19966;-58
2023/07/05 13:59:15;;;;;;;;;;;19.90;61.10;;;;;;5063781;28;20078;-58
2023/07/05 14:01:41;;;;;;;;;;;19.90;61.10;;;;;;5064741;28;19920;-58
2023/07/05 14:04:10;;;;;;;;;;;19.90;60.90;;;;;;5066323;28;20284;-58
2023/07/05 14:06:35;;;;;;;;;;;19.90;60.90;;;;;;5099235;28;20009;-58
2023/07/05 14:09:02;;;;;;;;;;;19.90;60.70;;;;;;5100426;28;19982;-58
2023/07/05 14:11:31;;;;;;;;;;;20.00;60.70;;;;;;5064843;28;19943;-57
2023/07/05 14:13:56;;;;;;;;;;;19.90;60.60;;;;;;5069906;28;19927;-57
2023/07/05 14:16:22;;;;;;;;;;;20.00;60.70;;;;;;5065537;28;19920;-58
2023/07/05 14:18:48;;;;;;;;;;;19.90;60.60;;;;;;5067205;28;19958;-58
2023/07/05 14:23:58;;;;;;;;;;;19.90;60.50;;;;;;5097631;27;19917;-58
2023/07/05 14:26:24;;;;;;;;;;;20.00;60.60;;;;;;5093338;28;19967;-58
2023/07/05 14:28:50;;;;;;;;;;;19.90;60.60;;;;;;5094535;28;19928;-57
2023/07/05 14:31:16;;;;;;;;;;;20.00;60.40;;;;;;5123759;27;20004;-58
2023/07/05 14:33:41;;;;;;;;;;;19.90;60.30;;;;;;5093773;28;19927;-58
2023/07/05 14:36:09;;;;;;;;;;;19.90;60.30;;;;;;5097233;28;19927;-58
2023/07/05 14:38:34;;;;;;;;;;;19.90;60.30;;;;;;5097081;28;20287;-58
2023/07/05 14:41:00;;;;;;;;;;;19.90;60.30;;;;;;5095610;28;19920;-58
2023/07/05 14:43:25;;;;;;;;;;;19.90;60.20;;;;;;5096524;28;19925;-58
2023/07/05 14:45:51;;;;;;;;;;;19.90;60.30;;;;;;5094498;28;19920;-58
2023/07/05 14:48:16;;;;;;;;;;;19.90;60.20;;;;;;5095018;28;19974;-58
2023/07/05 14:50:42;;;;;;;;;;;19.90;60.20;;;;;;5094184;28;19977;-57
2023/07/05 14:53:12;;;;;;;;;;;19.90;60.20;;;;;;5094860;28;20295;-58
2023/07/05 14:55:37;;;;;;;;;;;19.90;60.10;;;;;;5096366;28;20142;-57
2023/07/05 14:58:03;;;;;;;;;;;19.90;60.70;;;;;;5096685;28;20011;-57